createdAt,value
2018-08-16T00:00:20.642Z,51.76
2018-08-16T00:01:20.823Z,46.39
2018-08-16T00:02:21.013Z,54.44
2018-08-16T00:04:21.357Z,49.07
2018-08-16T00:05:21.536Z,47.36
2018-08-16T00:06:21.720Z,43.70
2018-08-16T00:07:21.907Z,55.66
2018-08-16T00:08:22.093Z,61.28
2018-08-16T00:09:22.263Z,44.43
2018-08-16T00:10:22.459Z,52.73
2018-08-16T00:11:22.632Z,83.98
2018-08-16T00:12:22.813Z,57.13
2018-08-16T00:13:23.403Z,48.34
2018-08-16T00:14:23.179Z,48.58
2018-08-16T00:15:23.355Z,46.39
2018-08-16T00:16:23.534Z,61.04
2018-08-16T00:17:23.712Z,45.90
2018-08-16T00:18:23.894Z,46.63
2018-08-16T00:19:24.073Z,52.25
2018-08-16T00:20:24.252Z,49.07
2018-08-16T00:21:24.436Z,47.61
2018-08-16T00:22:24.633Z,46.14
2018-08-16T00:23:24.801Z,59.81
2018-08-16T00:24:24.984Z,44.43
2018-08-16T00:25:25.164Z,59.57
2018-08-16T00:26:25.341Z,48.34
2018-08-16T00:27:25.902Z,45.41
2018-08-16T00:28:25.701Z,45.90
2018-08-16T00:29:25.887Z,46.39
2018-08-16T00:30:26.063Z,59.33
2018-08-16T00:31:26.242Z,45.65
2018-08-16T00:32:26.427Z,48.58
2018-08-16T00:33:26.604Z,45.65
2018-08-16T00:34:26.783Z,49.07
2018-08-16T00:35:26.965Z,61.28
2018-08-16T00:36:27.162Z,46.88
2018-08-16T00:37:27.330Z,45.17
2018-08-16T00:38:27.518Z,46.88
2018-08-16T00:39:27.698Z,47.85
2018-08-16T00:40:27.882Z,56.64
2018-08-16T00:41:28.068Z,49.80
2018-08-16T00:42:28.248Z,48.10
2018-08-16T00:43:28.425Z,63.23
2018-08-16T00:44:28.605Z,49.56
2018-08-16T00:45:28.784Z,49.80
2018-08-16T00:46:28.962Z,51.51
2018-08-16T00:48:29.327Z,47.12
2018-08-16T00:49:29.503Z,58.84
2018-08-16T00:50:29.690Z,43.70
2018-08-16T00:51:29.857Z,50.78
2018-08-16T00:52:30.032Z,44.43
2018-08-16T00:53:30.222Z,47.36
2018-08-16T00:54:30.390Z,56.64
2018-08-16T00:55:30.571Z,47.12
2018-08-16T00:56:30.763Z,47.85
2018-08-16T00:57:30.929Z,45.17
2018-08-16T00:58:31.116Z,45.41
2018-08-16T00:59:31.295Z,49.07
2018-08-16T01:00:31.469Z,49.32
2018-08-16T01:01:31.652Z,49.07
2018-08-16T01:02:31.830Z,56.88
2018-08-16T01:03:32.011Z,47.85
2018-08-16T01:04:32.189Z,45.17
2018-08-16T01:05:32.363Z,53.47
2018-08-16T01:06:32.547Z,52.00
2018-08-16T01:07:32.740Z,58.84
2018-08-16T01:08:32.921Z,44.68
2018-08-16T01:09:33.113Z,45.65
2018-08-16T01:10:33.298Z,64.94
2018-08-16T01:11:33.488Z,48.58
2018-08-16T01:12:33.660Z,55.66
2018-08-16T01:13:33.846Z,44.92
2018-08-16T01:14:34.027Z,50.29
2018-08-16T01:15:34.209Z,47.61
2018-08-16T01:16:34.387Z,44.92
2018-08-16T01:17:34.570Z,49.80
2018-08-16T01:18:34.747Z,50.54
2018-08-16T01:19:34.927Z,51.76
2018-08-16T01:20:35.111Z,46.88
2018-08-16T01:21:35.523Z,48.83
2018-08-16T01:22:35.468Z,52.25
2018-08-16T01:23:35.641Z,53.96
2018-08-16T01:24:35.821Z,50.78
2018-08-16T01:25:36.002Z,62.50
2018-08-16T01:26:36.181Z,57.62
2018-08-16T01:27:36.355Z,49.32
2018-08-16T01:28:36.542Z,50.54
2018-08-16T01:29:36.710Z,52.25
2018-08-16T01:30:36.890Z,48.10
2018-08-16T01:31:37.074Z,47.61
2018-08-16T01:32:37.251Z,46.88
2018-08-16T01:33:37.432Z,60.30
2018-08-16T01:34:37.632Z,45.41
2018-08-16T01:35:37.829Z,51.51
2018-08-16T01:36:37.973Z,44.92
2018-08-16T01:37:38.151Z,47.85
2018-08-16T01:38:38.340Z,50.29
2018-08-16T01:39:38.515Z,48.58
2018-08-16T01:40:38.692Z,48.10
2018-08-16T01:41:38.878Z,50.05
2018-08-16T01:42:39.051Z,56.88
2018-08-16T01:43:39.237Z,46.63
2018-08-16T01:44:39.424Z,49.80
2018-08-16T01:45:39.854Z,44.92
2018-08-16T01:46:39.786Z,59.81
2018-08-16T01:47:39.963Z,46.14
2018-08-16T01:48:40.143Z,45.41
2018-08-16T01:49:40.321Z,46.88
2018-08-16T01:50:40.500Z,47.36
2018-08-16T01:51:40.694Z,57.62
2018-08-16T01:52:40.859Z,45.41
2018-08-16T01:53:41.043Z,44.19
2018-08-16T01:54:41.222Z,50.05
2018-08-16T01:56:41.572Z,62.99
2018-08-16T01:57:41.754Z,48.10
2018-08-16T01:58:41.937Z,43.70
2018-08-16T01:59:42.123Z,47.12
2018-08-16T02:00:42.294Z,43.46
2018-08-16T02:01:42.485Z,43.21
2018-08-16T02:02:42.655Z,59.81
2018-08-16T02:03:42.838Z,47.61
2018-08-16T02:04:43.016Z,59.08
2018-08-16T02:05:43.203Z,50.29
2018-08-16T02:06:43.379Z,43.95
2018-08-16T02:07:43.559Z,53.47
2018-08-16T02:08:43.757Z,56.64
2018-08-16T02:09:43.970Z,46.14
2018-08-16T02:10:44.174Z,46.39
2018-08-16T02:11:44.327Z,48.34
2018-08-16T02:12:44.512Z,44.92
2018-08-16T02:13:44.703Z,43.95
2018-08-16T02:14:44.892Z,46.14
2018-08-16T02:15:45.086Z,46.39
2018-08-16T02:16:45.261Z,48.83
2018-08-16T02:17:45.407Z,42.72
2018-08-16T02:18:45.591Z,48.10
2018-08-16T02:19:45.775Z,42.24
2018-08-16T02:20:45.960Z,48.10
2018-08-16T02:21:46.135Z,43.95
2018-08-16T02:22:46.300Z,58.11
2018-08-16T02:23:46.478Z,49.80
2018-08-16T02:24:46.665Z,46.39
2018-08-16T02:25:46.826Z,45.65
2018-08-16T02:26:47.005Z,42.97
2018-08-16T02:27:47.199Z,44.92
2018-08-16T02:28:47.344Z,45.17
2018-08-16T02:29:47.882Z,49.07
2018-08-16T02:30:47.703Z,43.21
2018-08-16T02:31:47.875Z,43.21
2018-08-16T02:32:48.061Z,49.07
2018-08-16T02:33:48.290Z,43.46
2018-08-16T02:34:48.419Z,55.18
2018-08-16T02:35:48.590Z,62.99
2018-08-16T02:36:48.766Z,46.88
2018-08-16T02:37:48.943Z,44.92
2018-08-16T02:38:49.125Z,43.70
2018-08-16T02:39:50.014Z,46.88
2018-08-16T02:40:49.434Z,46.63
2018-08-16T02:41:49.619Z,46.39
2018-08-16T02:42:49.788Z,46.63
2018-08-16T02:43:49.977Z,43.70
2018-08-16T02:44:50.225Z,43.70
2018-08-16T02:45:50.392Z,49.80
2018-08-16T02:46:50.543Z,56.15
2018-08-16T02:47:50.713Z,53.47
2018-08-16T02:48:50.892Z,54.69
2018-08-16T02:49:51.087Z,55.66
2018-08-16T02:50:51.305Z,45.41
2018-08-16T02:51:51.458Z,46.88
2018-08-16T02:52:51.587Z,49.32
2018-08-16T02:53:51.767Z,45.41
2018-08-16T02:54:51.931Z,52.73
2018-08-16T02:55:52.118Z,49.07
2018-08-16T02:56:52.284Z,47.36
2018-08-16T02:57:52.471Z,44.68
2018-08-16T02:58:52.704Z,56.88
2018-08-16T02:59:52.878Z,49.07
2018-08-16T03:00:53.067Z,49.32
2018-08-16T03:01:53.249Z,45.41
2018-08-16T03:02:53.426Z,45.41
2018-08-16T03:03:53.595Z,47.36
2018-08-16T03:04:53.792Z,46.88
2018-08-16T03:05:53.966Z,46.63
2018-08-16T03:06:54.150Z,52.00
2018-08-16T03:07:54.324Z,51.51
2018-08-16T03:08:54.502Z,48.34
2018-08-16T03:09:54.680Z,47.85
2018-08-16T03:10:54.866Z,47.61
2018-08-16T03:11:55.034Z,59.33
2018-08-16T03:12:55.203Z,59.81
2018-08-16T03:13:55.372Z,63.48
2018-08-16T03:14:55.551Z,61.04
2018-08-16T03:15:55.724Z,63.72
2018-08-16T03:16:55.911Z,53.22
2018-08-16T03:17:56.079Z,57.86
2018-08-16T03:18:56.254Z,58.35
2018-08-16T03:19:56.431Z,59.08
2018-08-16T03:20:56.594Z,58.84
2018-08-16T03:21:56.772Z,58.59
2018-08-16T03:22:56.961Z,47.85
2018-08-16T03:23:57.126Z,47.85
2018-08-16T03:24:57.320Z,44.68
2018-08-16T03:25:57.492Z,46.14
2018-08-16T03:26:57.663Z,45.90
2018-08-16T03:27:57.835Z,46.63
2018-08-16T03:28:58.004Z,45.17
2018-08-16T03:29:58.184Z,48.58
2018-08-16T03:30:58.364Z,45.90
2018-08-16T03:31:58.557Z,46.14
2018-08-16T03:32:58.720Z,44.92
2018-08-16T03:33:58.892Z,45.41
2018-08-16T03:34:59.063Z,47.12
2018-08-16T03:35:59.240Z,50.05
2018-08-16T03:36:59.433Z,53.96
2018-08-16T03:37:59.609Z,51.51
2018-08-16T03:38:59.802Z,46.88
2018-08-16T03:39:59.972Z,58.59
2018-08-16T03:41:00.155Z,51.27
2018-08-16T03:42:00.331Z,65.43
2018-08-16T03:43:00.510Z,53.22
2018-08-16T03:44:00.939Z,45.90
2018-08-16T03:45:00.872Z,46.63
2018-08-16T03:46:01.058Z,46.88
2018-08-16T03:47:01.246Z,56.64
2018-08-16T03:48:01.426Z,47.61
2018-08-16T03:49:01.601Z,63.48
2018-08-16T03:50:01.787Z,62.50
2018-08-16T03:51:01.954Z,51.27
2018-08-16T03:52:02.131Z,51.03
2018-08-16T03:53:02.318Z,56.15
2018-08-16T03:54:02.490Z,46.63
2018-08-16T03:55:02.665Z,62.01
2018-08-16T03:56:02.845Z,49.07
2018-08-16T03:57:03.024Z,44.19
2018-08-16T03:58:03.202Z,66.41
2018-08-16T03:59:03.380Z,58.35
2018-08-16T04:00:03.562Z,64.70
2018-08-16T04:01:03.745Z,66.16
2018-08-16T04:02:03.920Z,46.88
2018-08-16T04:03:04.121Z,60.55
2018-08-16T04:04:04.300Z,51.76
2018-08-16T04:05:04.586Z,50.54
2018-08-16T04:06:04.708Z,45.17
2018-08-16T04:07:04.844Z,57.37
2018-08-16T04:08:05.031Z,56.88
2018-08-16T04:09:05.201Z,53.96
2018-08-16T04:10:05.368Z,62.74
2018-08-16T04:11:05.784Z,63.23
2018-08-16T04:12:05.699Z,60.79
2018-08-16T04:13:05.895Z,60.06
2018-08-16T04:14:06.070Z,58.11
2018-08-16T04:15:06.246Z,67.14
2018-08-16T04:16:06.426Z,63.72
2018-08-16T04:17:06.588Z,64.21
2018-08-16T04:18:06.759Z,60.79
2018-08-16T04:19:06.963Z,63.23
2018-08-16T04:20:07.155Z,64.70
2018-08-16T04:21:07.542Z,58.11
2018-08-16T04:22:07.506Z,63.48
2018-08-16T04:23:07.684Z,68.36
2018-08-16T04:24:07.872Z,59.08
2018-08-16T04:25:08.042Z,57.86
2018-08-16T04:26:08.222Z,57.86
2018-08-16T04:27:08.408Z,59.08
2018-08-16T04:28:08.564Z,58.35
2018-08-16T04:29:08.767Z,59.81
2018-08-16T04:30:08.901Z,66.89
2018-08-16T04:31:09.322Z,66.16
2018-08-16T04:32:09.264Z,68.85
2018-08-16T04:33:09.451Z,62.74
2018-08-16T04:34:09.628Z,62.50
2018-08-16T04:35:09.849Z,71.04
2018-08-16T04:36:09.952Z,77.15
2018-08-16T04:37:10.163Z,62.26
2018-08-16T04:38:10.337Z,65.19
2018-08-16T04:39:10.496Z,63.72
2018-08-16T04:40:10.697Z,66.65
2018-08-16T04:41:10.884Z,50.29
2018-08-16T04:42:11.093Z,52.00
2018-08-16T04:43:11.251Z,53.47
2018-08-16T04:44:11.421Z,55.66
2018-08-16T04:45:11.598Z,67.14
2018-08-16T04:46:11.760Z,62.50
2018-08-16T04:47:11.937Z,67.38
2018-08-16T04:48:12.140Z,51.76
2018-08-16T04:49:12.279Z,58.35
2018-08-16T04:50:12.464Z,58.35
2018-08-16T04:51:12.625Z,56.88
2018-08-16T04:52:12.803Z,73.97
2018-08-16T04:53:12.989Z,56.64
2018-08-16T04:54:13.162Z,60.06
2018-08-16T04:55:13.327Z,50.78
2018-08-16T04:56:13.527Z,51.27
2018-08-16T04:57:13.671Z,53.22
2018-08-16T04:58:13.846Z,51.27
2018-08-16T04:59:14.037Z,50.78
2018-08-16T05:00:14.230Z,67.14
2018-08-16T05:01:14.379Z,76.42
2018-08-16T05:02:14.578Z,79.35
2018-08-16T05:03:14.756Z,80.08
2018-08-16T05:04:14.928Z,80.32
2018-08-16T05:05:15.119Z,78.13
2018-08-16T05:06:15.292Z,78.37
2018-08-16T05:07:15.464Z,65.43
2018-08-16T05:08:15.651Z,68.12
2018-08-16T05:09:15.853Z,59.08
2018-08-16T05:10:16.025Z,61.04
2018-08-16T05:11:16.210Z,60.79
2018-08-16T05:12:16.401Z,60.79
2018-08-16T05:13:16.583Z,60.55
2018-08-16T05:14:16.764Z,57.86
2018-08-16T05:15:16.943Z,65.92
2018-08-16T05:16:17.136Z,52.49
2018-08-16T05:17:17.348Z,56.88
2018-08-16T05:18:17.754Z,58.35
2018-08-16T05:19:17.700Z,62.50
2018-08-16T05:20:17.878Z,62.50
2018-08-16T05:21:18.051Z,58.59
2018-08-16T05:22:18.262Z,57.86
2018-08-16T05:23:18.461Z,60.79
2018-08-16T05:24:18.643Z,55.18
2018-08-16T05:25:18.833Z,53.71
2018-08-16T05:26:20.498Z,51.76
2018-08-16T05:27:19.243Z,53.22
2018-08-16T05:28:19.418Z,53.96
2018-08-16T05:29:19.597Z,68.12
2018-08-16T05:30:19.794Z,66.16
2018-08-16T05:31:19.973Z,63.72
2018-08-16T05:32:20.158Z,61.04
2018-08-16T05:33:21.057Z,57.13
2018-08-16T05:34:20.493Z,70.80
2018-08-16T05:35:20.701Z,60.55
2018-08-16T05:36:21.505Z,59.57
2018-08-16T05:37:21.082Z,58.35
2018-08-16T05:38:21.264Z,54.93
2018-08-16T05:39:21.543Z,57.62
2018-08-16T05:40:21.627Z,67.14
2018-08-16T05:41:21.802Z,59.57
2018-08-16T05:42:21.991Z,60.79
2018-08-16T05:43:22.227Z,55.42
2018-08-16T05:44:22.372Z,54.93
2018-08-16T05:45:22.560Z,65.67
2018-08-16T05:46:22.989Z,52.25
2018-08-16T05:47:22.928Z,58.35
2018-08-16T05:48:23.106Z,60.30
2018-08-16T05:49:23.290Z,60.30
2018-08-16T05:50:23.466Z,67.87
2018-08-16T05:51:23.672Z,59.33
2018-08-16T05:52:23.851Z,66.65
2018-08-16T05:53:24.041Z,61.52
2018-08-16T05:54:24.240Z,61.28
2018-08-16T05:55:24.423Z,58.35
2018-08-16T05:56:24.628Z,64.45
2018-08-16T05:57:24.814Z,65.19
2018-08-16T05:58:25.004Z,66.41
2018-08-16T05:59:25.297Z,77.15
2018-08-16T06:00:25.386Z,75.93
2018-08-16T06:01:25.563Z,76.17
2018-08-16T06:02:25.759Z,63.23
2018-08-16T06:03:25.940Z,67.14
2018-08-16T06:04:26.117Z,66.41
2018-08-16T06:05:26.308Z,65.92
2018-08-16T06:06:26.489Z,71.29
2018-08-16T06:07:26.965Z,78.37
2018-08-16T06:08:26.863Z,70.80
2018-08-16T06:09:27.038Z,63.72
2018-08-16T06:10:27.232Z,63.72
2018-08-16T06:11:27.424Z,62.26
2018-08-16T06:12:27.605Z,63.48
2018-08-16T06:13:27.794Z,62.74
2018-08-16T06:14:27.979Z,68.12
2018-08-16T06:15:28.250Z,67.87
2018-08-16T06:16:28.349Z,61.52
2018-08-16T06:17:28.541Z,58.35
2018-08-16T06:18:28.739Z,65.19
2018-08-16T06:19:28.914Z,70.56
2018-08-16T06:20:30.091Z,63.72
2018-08-16T06:21:29.291Z,59.81
2018-08-16T06:22:29.468Z,79.59
2018-08-16T06:27:02.175Z,56.64
2018-08-16T06:28:02.364Z,65.43
2018-08-16T06:29:02.569Z,55.91
2018-08-16T06:30:02.744Z,71.78
2018-08-16T06:31:02.959Z,56.15
2018-08-16T06:32:03.138Z,62.99
2018-08-16T06:33:03.309Z,56.40
2018-08-16T06:34:03.487Z,59.57
2018-08-16T06:35:03.693Z,62.50
2018-08-16T06:36:03.868Z,73.49
2018-08-16T06:37:04.060Z,60.06
2018-08-16T06:38:04.249Z,63.23
2018-08-16T06:39:04.429Z,64.21
2018-08-16T06:40:04.618Z,59.81
2018-08-16T06:41:04.812Z,61.28
2018-08-16T06:42:05.008Z,58.35
2018-08-16T06:43:05.175Z,62.74
2018-08-16T06:44:05.416Z,61.04
2018-08-16T06:45:05.572Z,68.85
2018-08-16T06:46:05.770Z,60.55
2018-08-16T06:47:05.912Z,61.04
2018-08-16T06:48:06.171Z,64.94
2018-08-16T06:49:06.347Z,73.97
2018-08-16T06:50:06.591Z,74.95
2018-08-16T06:51:06.779Z,68.12
2018-08-16T06:52:06.973Z,73.49
2018-08-16T06:53:07.154Z,68.85
2018-08-16T06:54:07.364Z,67.14
2018-08-16T06:55:07.533Z,65.67
2018-08-16T06:56:07.953Z,57.86
2018-08-16T06:57:07.911Z,59.33
2018-08-16T06:58:08.144Z,60.79
2018-08-16T06:59:08.293Z,60.79
2018-08-16T07:00:08.463Z,67.14
2018-08-16T07:01:08.636Z,62.26
2018-08-16T07:02:08.835Z,67.63
2018-08-16T07:03:09.269Z,67.63
2018-08-16T07:04:09.253Z,60.79
2018-08-16T07:05:09.458Z,58.35
2018-08-16T07:06:09.624Z,65.67
2018-08-16T07:07:09.813Z,60.06
2018-08-16T07:08:10.011Z,62.26
2018-08-16T07:09:10.204Z,58.35
2018-08-16T07:10:10.395Z,60.30
2018-08-16T07:11:10.584Z,62.01
2018-08-16T07:12:10.882Z,58.84
2018-08-16T07:13:10.957Z,62.26
2018-08-16T07:14:11.141Z,62.01
2018-08-16T07:15:11.310Z,62.99
2018-08-16T07:16:11.516Z,62.74
2018-08-16T07:17:11.700Z,57.13
2018-08-16T07:18:11.890Z,69.34
2018-08-16T07:19:12.094Z,63.48
2018-08-16T07:20:12.270Z,67.87
2018-08-16T07:21:12.485Z,62.26
2018-08-16T07:22:12.684Z,63.72
2018-08-16T07:23:12.862Z,61.77
2018-08-16T07:24:13.090Z,70.80
2018-08-16T07:25:13.239Z,60.79
2018-08-16T07:26:13.429Z,64.45
2018-08-16T07:27:13.637Z,63.96
2018-08-16T07:28:13.810Z,64.21
2018-08-16T07:29:14.017Z,63.48
2018-08-16T07:30:14.234Z,65.67
2018-08-16T07:31:14.483Z,63.23
2018-08-16T07:32:14.606Z,60.79
2018-08-16T07:33:14.800Z,62.74
2018-08-16T07:34:14.972Z,65.67
2018-08-16T07:35:15.165Z,67.87
2018-08-16T07:36:15.344Z,64.94
2018-08-16T07:37:15.543Z,64.45
2018-08-16T07:38:15.722Z,68.36
2018-08-16T07:39:15.929Z,60.79
2018-08-16T07:40:16.101Z,62.01
2018-08-16T07:41:16.290Z,60.79
2018-08-16T07:42:16.480Z,63.72
2018-08-16T07:43:16.682Z,61.28
2018-08-16T07:44:16.888Z,58.84
2018-08-16T07:45:17.082Z,63.23
2018-08-16T07:46:17.437Z,61.04
2018-08-16T07:47:17.461Z,67.38
2018-08-16T07:48:17.631Z,61.52
2018-08-16T07:49:17.814Z,55.42
2018-08-16T07:50:18.009Z,59.57
2018-08-16T07:51:18.308Z,60.06
2018-08-16T07:52:18.366Z,63.23
2018-08-16T07:53:18.566Z,62.99
2018-08-16T07:54:18.752Z,67.14
2018-08-16T07:55:18.967Z,70.07
2018-08-16T07:56:19.173Z,65.92
2018-08-16T07:57:19.354Z,65.19
2018-08-16T07:58:19.603Z,63.96
2018-08-16T07:59:19.749Z,64.70
2018-08-16T08:00:19.922Z,63.48
2018-08-16T08:01:20.123Z,63.72
2018-08-16T08:02:20.317Z,64.70
2018-08-16T08:03:20.490Z,65.92
2018-08-16T08:04:20.687Z,62.50
2018-08-16T08:05:20.854Z,65.67
2018-08-16T08:06:21.034Z,65.67
2018-08-16T08:07:21.212Z,64.21
2018-08-16T08:08:21.428Z,77.39
2018-08-16T08:09:21.716Z,62.50
2018-08-16T08:10:21.776Z,60.06
2018-08-16T08:11:21.950Z,60.30
2018-08-16T08:12:22.187Z,62.99
2018-08-16T08:13:22.317Z,72.51
2018-08-16T08:14:22.513Z,69.34
2018-08-16T08:15:22.851Z,64.94
2018-08-16T08:16:22.882Z,63.96
2018-08-16T08:17:23.059Z,62.26
2018-08-16T08:18:23.239Z,61.04
2018-08-16T08:19:23.504Z,62.26
2018-08-16T08:20:23.616Z,73.00
2018-08-16T08:21:23.799Z,63.23
2018-08-16T08:22:23.995Z,67.63
2018-08-16T08:23:24.164Z,59.57
2018-08-16T08:24:24.349Z,66.41
2018-08-16T08:25:24.592Z,61.52
2018-08-16T08:26:24.728Z,79.10
2018-08-16T08:27:24.921Z,62.50
2018-08-16T08:28:25.111Z,62.50
2018-08-16T08:29:25.292Z,61.28
2018-08-16T08:30:25.478Z,66.65
2018-08-16T08:31:25.661Z,62.74
2018-08-16T08:32:25.845Z,61.77
2018-08-16T08:33:26.020Z,60.06
2018-08-16T08:34:26.206Z,64.70
2018-08-16T08:35:26.387Z,60.55
2018-08-16T08:36:26.576Z,63.23
2018-08-16T08:37:26.767Z,64.21
2018-08-16T08:38:27.024Z,61.28
2018-08-16T08:39:27.153Z,65.67
2018-08-16T08:40:27.344Z,64.94
2018-08-16T08:41:27.500Z,60.55
2018-08-16T08:42:27.689Z,62.50
2018-08-16T08:43:27.892Z,63.48
2018-08-16T08:44:28.197Z,68.60
2018-08-16T08:45:28.239Z,70.80
2018-08-16T08:46:28.410Z,68.36
2018-08-16T08:47:28.598Z,67.87
2018-08-16T08:48:28.787Z,70.07
2018-08-16T08:49:28.959Z,66.89
2018-08-16T08:50:29.282Z,65.67
2018-08-16T08:51:29.371Z,67.87
2018-08-16T08:52:29.527Z,65.92
2018-08-16T08:53:29.711Z,65.19
2018-08-16T08:54:29.899Z,66.65
2018-08-16T08:55:30.093Z,57.86
2018-08-16T08:56:30.259Z,57.86
2018-08-16T08:57:30.580Z,60.30
2018-08-16T08:58:30.644Z,64.21
2018-08-16T08:59:30.978Z,69.58
2018-08-16T09:00:31.022Z,63.96
2018-08-16T09:01:31.212Z,70.80
2018-08-16T09:02:31.392Z,69.34
2018-08-16T09:03:31.574Z,68.36
2018-08-16T09:04:31.754Z,67.38
2018-08-16T09:05:31.944Z,68.12
2018-08-16T09:06:32.141Z,69.82
2018-08-16T09:07:32.320Z,61.04
2018-08-16T09:08:32.495Z,62.01
2018-08-16T09:09:32.694Z,65.19
2018-08-16T09:10:32.882Z,60.55
2018-08-16T09:11:33.067Z,62.50
2018-08-16T09:12:33.259Z,67.87
2018-08-16T09:13:33.445Z,67.14
2018-08-16T09:14:33.638Z,71.29
2018-08-16T09:15:33.831Z,64.70
2018-08-16T09:16:34.018Z,66.16
2018-08-16T09:17:34.205Z,74.46
2018-08-16T09:18:34.399Z,61.28
2018-08-16T09:19:34.588Z,62.01
2018-08-16T09:20:34.784Z,64.21
2018-08-16T09:21:34.975Z,65.67
2018-08-16T09:22:35.164Z,67.14
2018-08-16T09:23:35.349Z,71.78
2018-08-16T09:24:35.539Z,68.36
2018-08-16T09:25:35.711Z,66.89
2018-08-16T09:26:35.906Z,61.77
2018-08-16T09:27:36.091Z,68.60
2018-08-16T09:28:36.296Z,62.74
2018-08-16T09:29:36.489Z,62.01
2018-08-16T09:30:36.665Z,67.14
2018-08-16T09:31:36.971Z,64.70
2018-08-16T09:32:37.083Z,68.60
2018-08-16T09:33:37.253Z,83.74
2018-08-16T09:34:37.448Z,63.48
2018-08-16T09:35:37.650Z,60.79
2018-08-16T09:36:37.842Z,57.62
2018-08-16T09:37:38.056Z,57.13
2018-08-16T09:38:38.246Z,60.79
2018-08-16T09:39:38.524Z,58.35
2018-08-16T09:40:38.583Z,68.36
2018-08-16T09:41:38.775Z,61.28
2018-08-16T09:42:38.962Z,61.52
2018-08-16T09:43:39.167Z,63.23
2018-08-16T09:44:39.368Z,63.23
2018-08-16T09:45:39.605Z,62.74
2018-08-16T09:46:39.729Z,63.48
2018-08-16T09:47:39.910Z,60.30
2018-08-16T09:48:40.105Z,61.52
2018-08-16T09:49:40.307Z,63.72
2018-08-16T09:50:40.479Z,68.36
2018-08-16T09:51:40.757Z,62.50
2018-08-16T09:52:40.830Z,64.70
2018-08-16T09:53:41.051Z,60.06
2018-08-16T09:54:41.216Z,64.94
2018-08-16T09:55:41.406Z,67.14
2018-08-16T09:56:41.605Z,65.19
2018-08-16T09:57:41.795Z,59.08
2018-08-16T09:58:41.963Z,58.59
2018-08-16T09:59:42.142Z,62.50
2018-08-16T10:00:42.329Z,63.72
2018-08-16T10:01:42.541Z,79.59
2018-08-16T10:02:42.735Z,79.10
2018-08-16T10:03:42.947Z,79.35
2018-08-16T10:04:43.374Z,79.35
2018-08-16T10:05:43.360Z,78.61
2018-08-16T10:06:43.527Z,78.37
2018-08-16T10:07:43.722Z,73.73
2018-08-16T10:08:43.912Z,71.04
2018-08-16T10:09:44.143Z,62.50
2018-08-16T10:10:44.369Z,62.99
2018-08-16T10:11:44.581Z,59.08
2018-08-16T10:12:44.759Z,60.06
2018-08-16T10:13:44.940Z,64.21
2018-08-16T10:14:45.128Z,75.93
2018-08-16T10:15:45.558Z,69.09
2018-08-16T10:16:45.502Z,77.15
2018-08-16T10:17:45.782Z,71.29
2018-08-16T10:18:45.929Z,59.33
2018-08-16T10:19:46.148Z,65.43
2018-08-16T10:20:46.358Z,68.36
2018-08-16T10:21:46.516Z,70.31
2018-08-16T10:22:46.682Z,69.82
2018-08-16T10:23:46.895Z,68.36
2018-08-16T10:24:47.106Z,69.82
2018-08-16T10:25:47.221Z,68.60
2018-08-16T10:26:47.470Z,63.48
2018-08-16T10:27:47.670Z,60.55
2018-08-16T10:28:47.832Z,59.57
2018-08-16T10:29:48.021Z,58.35
2018-08-16T10:30:48.218Z,62.01
2018-08-16T10:31:48.409Z,56.15
2018-08-16T10:32:48.590Z,55.91
2018-08-16T10:33:48.768Z,57.37
2018-08-16T10:34:48.977Z,60.30
2018-08-16T10:35:49.182Z,60.79
2018-08-16T10:36:49.375Z,59.33
2018-08-16T10:37:49.551Z,58.84
2018-08-16T10:38:49.747Z,65.19
2018-08-16T10:39:49.948Z,62.50
2018-08-16T10:40:50.121Z,69.82
2018-08-16T10:41:50.301Z,70.56
2018-08-16T10:42:50.508Z,65.19
2018-08-16T10:43:50.682Z,69.82
2018-08-16T10:44:50.881Z,61.52
2018-08-16T10:45:51.032Z,62.99
2018-08-16T10:46:51.260Z,64.70
2018-08-16T10:47:51.764Z,72.75
2018-08-16T10:48:51.668Z,69.82
2018-08-16T10:49:52.649Z,71.04
2018-08-16T10:50:52.083Z,61.28
2018-08-16T10:51:52.361Z,60.79
2018-08-16T10:52:52.483Z,62.01
2018-08-16T10:53:52.711Z,58.84
2018-08-16T10:54:52.982Z,60.55
2018-08-16T10:55:53.044Z,59.08
2018-08-16T10:56:53.241Z,60.30
2018-08-16T10:57:53.419Z,60.30
2018-08-16T10:58:53.610Z,62.26
2018-08-16T10:59:53.775Z,61.52
2018-08-16T11:00:53.965Z,66.89
2018-08-16T11:01:54.193Z,65.43
2018-08-16T11:02:54.478Z,67.38
2018-08-16T11:03:54.561Z,61.77
2018-08-16T11:04:54.741Z,60.06
2018-08-16T11:05:54.921Z,67.63
2018-08-16T11:06:55.108Z,77.64
2018-08-16T11:07:55.280Z,74.22
2018-08-16T11:08:55.466Z,69.82
2018-08-16T11:09:55.666Z,62.26
2018-08-16T11:10:55.855Z,62.26
2018-08-16T11:11:56.036Z,64.94
2018-08-16T11:12:56.226Z,60.06
2018-08-16T11:13:56.413Z,65.67
2018-08-16T11:14:56.601Z,64.94
2018-08-16T11:15:56.828Z,60.79
2018-08-16T11:16:57.059Z,61.77
2018-08-16T11:17:57.215Z,61.04
2018-08-16T11:18:57.554Z,61.04
2018-08-16T11:19:57.661Z,58.84
2018-08-16T11:20:57.854Z,56.64
2018-08-16T11:21:58.034Z,57.37
2018-08-16T11:22:58.215Z,65.67
2018-08-16T11:23:58.419Z,60.79
2018-08-16T11:24:58.579Z,61.52
2018-08-16T11:25:58.761Z,64.21
2018-08-16T11:26:58.937Z,63.23
2018-08-16T11:27:59.118Z,63.96
2018-08-16T11:28:59.350Z,62.99
2018-08-16T11:29:59.774Z,59.81
2018-08-16T11:30:59.704Z,61.28
2018-08-16T11:31:59.942Z,70.56
2018-08-16T11:33:00.095Z,62.01
2018-08-16T11:34:00.263Z,65.67
2018-08-16T11:35:00.518Z,63.23
2018-08-16T11:36:00.634Z,71.29
2018-08-16T11:37:01.092Z,68.85
2018-08-16T11:38:00.996Z,65.19
2018-08-16T11:39:01.175Z,77.39
2018-08-16T11:40:01.368Z,70.80
2018-08-16T11:41:01.546Z,63.23
2018-08-16T11:42:01.727Z,66.16
2018-08-16T11:43:01.914Z,64.94
2018-08-16T11:44:02.117Z,61.04
2018-08-16T11:45:02.287Z,62.74
2018-08-16T11:46:02.466Z,62.50
2018-08-16T11:47:02.673Z,64.70
2018-08-16T11:48:02.861Z,54.44
2018-08-16T11:49:03.021Z,58.59
2018-08-16T11:50:03.216Z,58.35
2018-08-16T11:51:03.406Z,59.08
2018-08-16T11:52:03.585Z,60.55
2018-08-16T11:53:03.779Z,63.96
2018-08-16T11:54:03.965Z,68.12
2018-08-16T11:55:04.153Z,62.50
2018-08-16T11:56:04.351Z,65.92
2018-08-16T11:57:04.549Z,61.77
2018-08-16T11:58:04.722Z,62.74
2018-08-16T11:59:04.909Z,58.84
2018-08-16T12:00:05.102Z,62.26
2018-08-16T12:01:05.545Z,66.16
2018-08-16T12:02:05.527Z,55.91
2018-08-16T12:03:05.683Z,57.86
2018-08-16T12:04:05.872Z,68.12
2018-08-16T12:05:06.062Z,63.48
2018-08-16T12:06:06.257Z,66.65
2018-08-16T12:07:06.442Z,61.77
2018-08-16T12:08:06.640Z,56.64
2018-08-16T12:09:06.824Z,59.57
2018-08-16T12:10:07.010Z,64.94
2018-08-16T12:11:07.211Z,70.31
2018-08-16T12:12:07.394Z,62.01
2018-08-16T12:13:07.592Z,58.35
2018-08-16T12:14:07.764Z,61.77
2018-08-16T12:15:08.021Z,60.06
2018-08-16T12:16:08.131Z,58.59
2018-08-16T12:17:08.336Z,59.81
2018-08-16T12:18:08.526Z,65.67
2018-08-16T12:19:08.694Z,61.52
2018-08-16T12:20:08.884Z,66.89
2018-08-16T12:21:09.234Z,64.21
2018-08-16T12:22:09.257Z,78.13
2018-08-16T12:23:09.453Z,66.89
2018-08-16T12:24:09.637Z,62.01
2018-08-16T12:25:09.812Z,77.15
2018-08-16T12:26:09.997Z,69.58
2018-08-16T12:27:10.175Z,63.23
2018-08-16T12:28:10.347Z,70.56
2018-08-16T12:29:10.545Z,63.23
2018-08-16T12:30:10.735Z,62.50
2018-08-16T12:31:10.903Z,59.08
2018-08-16T12:32:11.091Z,67.38
2018-08-16T12:33:11.278Z,65.67
2018-08-16T12:34:11.480Z,62.99
2018-08-16T12:35:11.659Z,57.13
2018-08-16T12:36:11.849Z,61.04
2018-08-16T12:37:12.044Z,59.57
2018-08-16T12:38:12.225Z,60.30
2018-08-16T12:39:12.402Z,67.14
2018-08-16T12:40:12.590Z,58.11
2018-08-16T12:41:12.905Z,54.69
2018-08-16T12:42:13.013Z,59.57
2018-08-16T12:43:13.155Z,56.88
2018-08-16T12:44:13.340Z,60.79
2018-08-16T12:45:13.539Z,69.58
2018-08-16T12:46:13.747Z,55.42
2018-08-16T12:47:13.941Z,61.28
2018-08-16T12:48:14.103Z,64.70
2018-08-16T12:49:14.281Z,62.99
2018-08-16T12:50:14.467Z,63.96
2018-08-16T12:51:14.650Z,56.40
2018-08-16T12:52:14.853Z,58.84
2018-08-16T12:53:15.028Z,60.30
2018-08-16T12:54:15.229Z,62.99
2018-08-16T12:55:15.412Z,62.74
2018-08-16T12:56:15.574Z,55.91
2018-08-16T12:57:15.766Z,60.79
2018-08-16T12:58:15.967Z,56.40
2018-08-16T12:59:16.192Z,64.21
2018-08-16T13:00:16.372Z,61.52
2018-08-16T13:01:16.570Z,65.92